createdAt,value
2023-05-17T00:00:10.221Z,11.60
2023-05-17T00:01:10.234Z,11.66
2023-05-17T00:02:10.234Z,11.62
2023-05-17T00:03:10.326Z,11.66
2023-05-17T00:04:11.261Z,11.73
2023-05-17T00:05:10.223Z,11.66
2023-05-17T00:06:10.222Z,11.68
2023-05-17T00:07:10.199Z,11.75
2023-05-17T00:08:10.192Z,11.77
2023-05-17T00:09:10.228Z,11.68
2023-05-17T00:10:11.210Z,11.70
2023-05-17T00:11:10.203Z,11.66
2023-05-17T00:12:10.184Z,11.72
2023-05-17T00:13:10.172Z,11.75
2023-05-17T00:14:10.163Z,11.66
2023-05-17T00:15:10.169Z,11.68
2023-05-17T00:16:11.193Z,11.70
2023-05-17T00:17:10.157Z,11.66
2023-05-17T00:18:10.257Z,11.65
2023-05-17T00:19:10.267Z,11.65
2023-05-17T00:20:10.141Z,11.62
2023-05-17T00:21:10.140Z,11.72
2023-05-17T00:22:11.144Z,11.68
2023-05-17T00:23:10.207Z,11.65
2023-05-17T00:24:10.131Z,11.66
2023-05-17T00:25:10.118Z,11.65
2023-05-17T00:26:10.119Z,11.63
2023-05-17T00:27:10.128Z,11.65
2023-05-17T00:28:11.141Z,11.65
2023-05-17T00:29:10.113Z,11.68
2023-05-17T00:30:10.099Z,11.65
2023-05-17T00:31:10.104Z,11.66
2023-05-17T00:32:10.090Z,11.69
2023-05-17T00:33:10.176Z,11.70
2023-05-17T00:34:11.103Z,11.62
2023-05-17T00:35:10.109Z,11.63
2023-05-17T00:36:10.074Z,11.66
2023-05-17T00:37:10.083Z,11.68
2023-05-17T00:38:10.084Z,11.65
2023-05-17T00:39:10.153Z,11.63
2023-05-17T00:40:11.069Z,11.62
2023-05-17T00:41:10.061Z,11.63
2023-05-17T00:42:10.053Z,11.60
2023-05-17T00:43:10.042Z,11.68
2023-05-17T00:44:10.042Z,11.62
2023-05-17T00:45:10.063Z,11.60
2023-05-17T00:46:11.079Z,11.51
2023-05-17T00:47:10.073Z,11.57
2023-05-17T00:48:10.103Z,11.62
2023-05-17T00:49:10.040Z,11.57
2023-05-17T00:50:10.018Z,11.52
2023-05-17T00:51:10.022Z,11.50
2023-05-17T00:52:11.020Z,11.54
2023-05-17T00:53:10.015Z,11.54
2023-05-17T00:54:09.994Z,11.50
2023-05-17T00:55:10.214Z,11.47
2023-05-17T00:56:10.004Z,11.48
2023-05-17T00:57:10.004Z,11.47
2023-05-17T00:58:10.992Z,11.47
2023-05-17T00:59:09.988Z,11.33
2023-05-17T01:00:09.970Z,11.47
2023-05-17T01:01:09.973Z,11.48
2023-05-17T01:02:09.966Z,11.45
2023-05-17T01:03:10.061Z,11.48
2023-05-17T01:04:11.118Z,11.48
2023-05-17T01:05:09.964Z,11.36
2023-05-17T01:06:09.966Z,11.47
2023-05-17T01:07:09.978Z,11.33
2023-05-17T01:08:09.933Z,11.36
2023-05-17T01:09:09.943Z,11.37
2023-05-17T01:10:10.946Z,11.41
2023-05-17T01:11:09.998Z,11.43
2023-05-17T01:12:09.923Z,11.41
2023-05-17T01:13:09.918Z,11.36
2023-05-17T01:14:09.943Z,11.33
2023-05-17T01:15:09.929Z,11.27
2023-05-17T01:16:10.910Z,11.26
2023-05-17T01:17:09.900Z,11.30
2023-05-17T01:18:09.960Z,11.18
2023-05-17T01:19:09.959Z,11.33
2023-05-17T01:20:10.011Z,11.27
2023-05-17T01:21:09.882Z,11.25
2023-05-17T01:22:10.901Z,11.35
2023-05-17T01:23:09.890Z,11.36
2023-05-17T01:24:09.873Z,11.36
2023-05-17T01:25:09.877Z,11.27
2023-05-17T01:26:09.859Z,11.17
2023-05-17T01:27:09.938Z,11.29
2023-05-17T01:28:10.884Z,11.19
2023-05-17T01:29:09.845Z,11.26
2023-05-17T01:30:09.852Z,11.29
2023-05-17T01:31:09.840Z,11.26
2023-05-17T01:32:09.842Z,11.26
2023-05-17T01:33:10.043Z,11.23
2023-05-17T01:34:10.848Z,11.26
2023-05-17T01:35:09.828Z,11.27
2023-05-17T01:36:09.846Z,11.23
2023-05-17T01:37:09.812Z,11.23
2023-05-17T01:38:09.799Z,11.19
2023-05-17T01:39:09.803Z,11.27
2023-05-17T01:40:10.809Z,11.23
2023-05-17T01:41:09.798Z,11.19
2023-05-17T01:42:09.786Z,11.17
2023-05-17T01:43:09.888Z,11.15
2023-05-17T01:44:09.781Z,11.14
2023-05-17T01:45:09.773Z,11.14
2023-05-17T01:46:10.792Z,11.12
2023-05-17T01:47:09.771Z,11.10
2023-05-17T01:48:09.938Z,11.10
2023-05-17T01:49:09.759Z,11.05
2023-05-17T01:50:09.759Z,11.05
2023-05-17T01:51:09.753Z,11.11
2023-05-17T01:52:10.761Z,11.10
2023-05-17T01:53:09.758Z,11.08
2023-05-17T01:54:09.733Z,11.08
2023-05-17T01:55:09.726Z,11.10
2023-05-17T01:56:09.725Z,11.08
2023-05-17T01:57:09.728Z,11.11
2023-05-17T01:58:10.745Z,11.14
2023-05-17T01:59:09.797Z,11.07
2023-05-17T02:00:09.719Z,11.08
2023-05-17T02:01:09.709Z,11.08
2023-05-17T02:02:09.718Z,11.10
2023-05-17T02:03:09.694Z,11.02
2023-05-17T02:04:10.832Z,11.05
2023-05-17T02:05:09.788Z,11.05
2023-05-17T02:06:09.687Z,11.04
2023-05-17T02:07:09.680Z,11.11
2023-05-17T02:08:09.671Z,11.07
2023-05-17T02:09:09.686Z,11.04
2023-05-17T02:10:10.671Z,11.05
2023-05-17T02:11:09.657Z,11.08
2023-05-17T02:12:09.687Z,11.15
2023-05-17T02:13:09.653Z,11.05
2023-05-17T02:14:09.679Z,11.08
2023-05-17T02:15:09.794Z,11.12
2023-05-17T02:16:10.650Z,11.05
2023-05-17T02:17:09.671Z,11.02
2023-05-17T02:18:09.686Z,11.07
2023-05-17T02:19:09.690Z,11.05
2023-05-17T02:20:09.635Z,11.05
2023-05-17T02:21:09.619Z,11.05
2023-05-17T02:22:10.624Z,11.08
2023-05-17T02:23:09.604Z,11.04
2023-05-17T02:24:09.614Z,11.07
2023-05-17T02:25:09.637Z,11.05
2023-05-17T02:26:09.620Z,11.10
2023-05-17T02:27:09.587Z,11.07
2023-05-17T02:28:10.604Z,11.07
2023-05-17T02:29:09.587Z,11.07
2023-05-17T02:30:09.579Z,11.07
2023-05-17T02:31:09.685Z,11.04
2023-05-17T02:32:09.569Z,11.12
2023-05-17T02:33:09.645Z,10.96
2023-05-17T02:34:10.566Z,11.05
2023-05-17T02:35:09.560Z,11.10
2023-05-17T02:36:09.545Z,11.04
2023-05-17T02:37:09.544Z,11.00
2023-05-17T02:38:09.535Z,11.08
2023-05-17T02:39:09.531Z,10.94
2023-05-17T02:40:10.551Z,11.05
2023-05-17T02:41:09.524Z,11.07
2023-05-17T02:42:09.544Z,11.00
2023-05-17T02:43:09.525Z,10.97
2023-05-17T02:44:09.529Z,11.04
2023-05-17T02:45:09.519Z,11.10
2023-05-17T02:46:10.520Z,11.07
2023-05-17T02:47:09.833Z,11.07
2023-05-17T02:48:09.548Z,11.11
2023-05-17T02:49:09.491Z,11.08
2023-05-17T02:50:09.492Z,11.10
2023-05-17T02:51:09.480Z,11.02
2023-05-17T02:52:10.487Z,11.10
2023-05-17T02:53:09.464Z,11.07
2023-05-17T02:54:09.526Z,11.05
2023-05-17T02:55:09.471Z,11.04
2023-05-17T02:56:09.477Z,11.05
2023-05-17T02:57:09.449Z,11.08
2023-05-17T02:58:10.469Z,11.07
2023-05-17T02:59:09.453Z,11.10
2023-05-17T03:00:09.442Z,11.10
2023-05-17T03:01:09.465Z,11.07
2023-05-17T03:02:09.435Z,11.04
2023-05-17T03:03:09.656Z,11.10
2023-05-17T03:04:10.479Z,11.11
2023-05-17T03:05:09.413Z,11.15
2023-05-17T03:06:09.414Z,11.12
2023-05-17T03:07:09.421Z,11.12
2023-05-17T03:08:09.420Z,11.11
2023-05-17T03:09:09.409Z,11.12
2023-05-17T03:10:10.435Z,11.08
2023-05-17T03:11:09.403Z,11.11
2023-05-17T03:12:09.378Z,11.22
2023-05-17T03:13:09.382Z,11.22
2023-05-17T03:14:09.402Z,11.23
2023-05-17T03:15:09.402Z,11.22
2023-05-17T03:16:10.386Z,11.17
2023-05-17T03:17:09.368Z,11.12
2023-05-17T03:18:09.526Z,11.17
2023-05-17T03:19:09.656Z,11.11
2023-05-17T03:20:09.382Z,11.15
2023-05-17T03:21:09.349Z,11.17
2023-05-17T03:22:10.349Z,11.17
2023-05-17T03:23:09.334Z,11.22
2023-05-17T03:24:09.338Z,11.19
2023-05-17T03:25:09.329Z,11.23
2023-05-17T03:26:09.330Z,11.25
2023-05-17T03:27:09.353Z,11.22
2023-05-17T03:28:10.336Z,11.18
2023-05-17T03:29:09.320Z,11.22
2023-05-17T03:30:09.308Z,11.25
2023-05-17T03:31:09.363Z,11.25
2023-05-17T03:32:09.294Z,11.22
2023-05-17T03:33:09.394Z,11.23
2023-05-17T03:34:10.351Z,11.27
2023-05-17T03:35:09.561Z,11.19
2023-05-17T03:36:09.301Z,11.25
2023-05-17T03:37:09.299Z,11.17
2023-05-17T03:38:09.278Z,11.29
2023-05-17T03:39:09.304Z,11.25
2023-05-17T03:40:10.292Z,11.22
2023-05-17T03:41:09.256Z,11.25
2023-05-17T03:42:09.252Z,11.25
2023-05-17T03:43:09.248Z,11.26
2023-05-17T03:44:09.270Z,11.23
2023-05-17T03:45:09.255Z,11.25
2023-05-17T03:46:10.269Z,11.18
2023-05-17T03:47:09.250Z,11.23
2023-05-17T03:48:09.246Z,11.23
2023-05-17T03:49:09.356Z,11.18
2023-05-17T03:50:09.235Z,11.25
2023-05-17T03:51:09.284Z,11.35
2023-05-17T03:52:10.236Z,11.29
2023-05-17T03:53:09.221Z,11.22
2023-05-17T03:54:09.207Z,11.29
2023-05-17T03:55:09.211Z,11.32
2023-05-17T03:56:09.205Z,11.19
2023-05-17T03:57:09.191Z,11.17
2023-05-17T03:58:10.208Z,11.30
2023-05-17T03:59:09.193Z,11.18
2023-05-17T04:00:09.200Z,11.26
2023-05-17T04:01:09.174Z,11.23
2023-05-17T04:02:09.179Z,11.26
2023-05-17T04:03:09.176Z,11.17
2023-05-17T04:04:10.214Z,11.27
2023-05-17T04:05:09.192Z,11.23
2023-05-17T04:06:09.158Z,11.26
2023-05-17T04:07:09.154Z,11.17
2023-05-17T04:08:09.150Z,11.23
2023-05-17T04:09:09.146Z,11.30
2023-05-17T04:10:10.168Z,11.27
2023-05-17T04:11:09.148Z,11.19
2023-05-17T04:12:09.163Z,11.19
2023-05-17T04:13:16.427Z,11.29
2023-05-17T04:15:13.131Z,11.25
2023-05-17T04:16:13.102Z,11.26
2023-05-17T04:18:17.188Z,11.18
2023-05-17T04:19:17.217Z,11.27
2023-05-17T04:21:21.095Z,11.23
2023-05-17T04:22:21.152Z,11.27
2023-05-17T04:24:14.005Z,11.32
2023-05-17T04:25:13.985Z,11.32
2023-05-17T04:27:17.981Z,11.40
2023-05-17T04:28:17.940Z,11.40
2023-05-17T04:30:21.948Z,11.37
2023-05-17T04:31:21.928Z,11.40
2023-05-17T04:33:26.139Z,11.47
2023-05-17T04:34:25.961Z,11.36
2023-05-17T04:36:29.909Z,11.36
2023-05-17T04:37:29.991Z,11.48
2023-05-17T04:39:33.922Z,11.40
2023-05-17T04:40:33.880Z,11.43
2023-05-17T04:42:37.928Z,11.36
2023-05-17T04:43:37.880Z,11.35
2023-05-17T04:45:41.883Z,11.48
2023-05-17T04:46:41.892Z,11.51
2023-05-17T04:48:45.984Z,11.36
2023-05-17T04:49:45.851Z,11.41
2023-05-17T04:50:45.860Z,11.43
2023-05-17T04:51:45.838Z,11.43
2023-05-17T04:52:45.950Z,11.41
2023-05-17T04:53:45.835Z,11.35
2023-05-17T04:54:45.829Z,11.43
2023-05-17T04:55:45.833Z,11.40
2023-05-17T04:56:45.823Z,11.36
2023-05-17T04:57:45.837Z,11.37
2023-05-17T04:58:45.824Z,11.35
2023-05-17T04:59:45.812Z,11.44
2023-05-17T05:00:45.802Z,11.35
2023-05-17T05:01:45.795Z,11.37
2023-05-17T05:02:45.862Z,11.40
2023-05-17T05:03:45.895Z,11.41
2023-05-17T05:04:45.820Z,11.48
2023-05-17T05:05:45.793Z,11.45
2023-05-17T05:06:45.787Z,11.50
2023-05-17T05:07:45.772Z,11.48
2023-05-17T05:08:45.918Z,11.62
2023-05-17T05:09:45.787Z,11.62
2023-05-17T05:10:45.777Z,11.57
2023-05-17T05:11:45.759Z,11.60
2023-05-17T05:12:45.757Z,11.59
2023-05-17T05:13:45.752Z,11.60
2023-05-17T05:14:46.064Z,11.60
2023-05-17T05:15:45.742Z,11.59
2023-05-17T05:16:45.766Z,11.65
2023-05-17T05:17:45.769Z,11.60
2023-05-17T05:18:45.850Z,11.63
2023-05-17T05:19:45.763Z,11.55
2023-05-17T05:20:45.784Z,11.60
2023-05-17T05:21:45.740Z,11.65
2023-05-17T05:22:45.726Z,11.70
2023-05-17T05:23:45.744Z,11.72
2023-05-17T05:24:45.795Z,11.69
2023-05-17T05:25:45.712Z,11.65
2023-05-17T05:26:45.721Z,11.81
2023-05-17T05:27:45.703Z,11.69
2023-05-17T05:28:45.706Z,11.77
2023-05-17T05:29:45.686Z,11.84
2023-05-17T05:30:45.724Z,11.84
2023-05-17T05:31:45.704Z,11.91
2023-05-17T05:32:45.789Z,12.02
2023-05-17T05:33:45.761Z,12.04
2023-05-17T05:34:45.676Z,12.13
2023-05-17T05:35:45.677Z,12.18
2023-05-17T05:36:45.675Z,12.28
2023-05-17T05:37:45.671Z,12.29
2023-05-17T05:38:45.692Z,12.31
2023-05-17T05:39:45.652Z,12.35
2023-05-17T05:40:45.743Z,12.32
2023-05-17T05:41:45.657Z,12.35
2023-05-17T05:42:45.654Z,12.45
2023-05-17T05:43:45.659Z,12.53
2023-05-17T05:44:45.652Z,12.57
2023-05-17T05:45:45.669Z,12.45
2023-05-17T05:46:45.697Z,12.40
2023-05-17T05:47:45.715Z,12.43
2023-05-17T05:48:45.704Z,12.47
2023-05-17T05:49:45.672Z,12.50
2023-05-17T05:50:45.663Z,12.47
2023-05-17T05:51:45.649Z,12.49
2023-05-17T05:52:45.649Z,12.49
2023-05-17T05:53:45.645Z,12.46
2023-05-17T05:54:45.653Z,12.45
2023-05-17T05:55:45.658Z,12.43
2023-05-17T05:56:45.781Z,12.53
2023-05-17T05:57:45.662Z,12.50
2023-05-17T05:58:45.658Z,12.58
2023-05-17T05:59:45.652Z,12.73
2023-05-17T06:00:45.681Z,12.68
2023-05-17T06:01:45.650Z,12.72
2023-05-17T06:02:45.721Z,12.79
2023-05-17T06:03:45.646Z,12.67
2023-05-17T06:04:46.140Z,12.62
2023-05-17T06:05:45.683Z,12.57
2023-05-17T06:06:45.763Z,12.72
2023-05-17T06:07:45.656Z,12.70
2023-05-17T06:08:45.655Z,12.78
2023-05-17T06:09:45.666Z,12.60
2023-05-17T06:10:45.651Z,12.60
2023-05-17T06:11:45.648Z,12.49
2023-05-17T06:12:45.923Z,12.45
2023-05-17T06:13:46.292Z,12.42
2023-05-17T06:14:45.657Z,12.36
2023-05-17T06:15:45.643Z,12.46
2023-05-17T06:16:45.656Z,12.45
2023-05-17T06:17:45.742Z,12.32
2023-05-17T06:18:46.511Z,12.32
2023-05-17T06:19:45.658Z,12.36
2023-05-17T06:20:45.643Z,12.45
2023-05-17T06:21:45.651Z,12.57
2023-05-17T06:22:45.654Z,12.73
2023-05-17T06:23:45.653Z,12.70
2023-05-17T06:24:45.644Z,12.86
2023-05-17T06:25:45.660Z,12.98
2023-05-17T06:26:45.658Z,12.98
2023-05-17T06:27:45.646Z,12.93
2023-05-17T06:28:45.741Z,13.03
2023-05-17T06:29:45.645Z,13.04
2023-05-17T06:30:45.677Z,13.04
2023-05-17T06:31:45.658Z,13.18
2023-05-17T06:32:45.716Z,13.30
2023-05-17T06:33:45.756Z,13.22
2023-05-17T06:34:45.649Z,13.39
2023-05-17T06:35:55.482Z,13.42
2023-05-17T06:36:45.649Z,13.56
2023-05-17T06:37:45.657Z,13.38
2023-05-17T06:38:45.650Z,13.38
2023-05-17T06:39:55.634Z,13.37
2023-05-17T06:40:45.679Z,13.31
2023-05-17T06:41:45.686Z,13.44
2023-05-17T06:42:45.670Z,13.44
2023-05-17T06:43:45.668Z,13.49
2023-05-17T06:44:45.733Z,13.46
2023-05-17T06:45:45.655Z,13.35
2023-05-17T06:46:45.676Z,13.38
2023-05-17T06:47:45.727Z,13.38
2023-05-17T06:48:46.918Z,13.33
2023-05-17T06:49:45.679Z,13.44
2023-05-17T06:50:45.676Z,13.37
2023-05-17T06:51:45.673Z,13.33
2023-05-17T06:52:45.665Z,13.27
2023-05-17T06:53:45.675Z,13.37
2023-05-17T06:54:45.669Z,13.33
2023-05-17T06:55:45.683Z,13.37
2023-05-17T06:56:45.691Z,13.35
2023-05-17T06:57:45.688Z,13.39
2023-05-17T06:58:45.708Z,13.56
2023-05-17T06:59:45.704Z,13.65
2023-05-17T07:00:45.776Z,13.71
2023-05-17T07:01:45.709Z,13.77
2023-05-17T07:02:45.786Z,13.95
2023-05-17T07:03:45.787Z,14.00
2023-05-17T07:04:45.735Z,14.08
2023-05-17T07:05:45.733Z,14.20
2023-05-17T07:06:45.717Z,14.37
2023-05-17T07:07:45.718Z,14.54
2023-05-17T07:08:45.729Z,14.73
2023-05-17T07:09:45.851Z,15.02
2023-05-17T07:10:45.758Z,15.21
2023-05-17T07:11:45.747Z,15.39
2023-05-17T07:12:45.745Z,15.36
2023-05-17T07:13:46.788Z,15.36
2023-05-17T07:14:45.771Z,15.29
2023-05-17T07:15:45.791Z,15.11
2023-05-17T07:16:45.859Z,14.88
2023-05-17T07:17:45.854Z,14.66
2023-05-17T07:18:45.838Z,14.58
2023-05-17T07:19:45.911Z,14.59
2023-05-17T07:20:46.000Z,14.59
2023-05-17T07:21:45.859Z,14.48
2023-05-17T07:22:45.842Z,14.47
2023-05-17T07:23:45.837Z,14.54
2023-05-17T07:24:45.849Z,14.48
2023-05-17T07:25:45.849Z,14.58
2023-05-17T07:26:45.834Z,14.50
2023-05-17T07:27:46.382Z,14.59
2023-05-17T07:28:45.856Z,14.62
2023-05-17T07:29:45.878Z,14.77
2023-05-17T07:30:45.884Z,14.97
2023-05-17T07:31:45.874Z,15.19
2023-05-17T07:32:45.990Z,15.33
2023-05-17T07:33:45.917Z,15.40
2023-05-17T07:34:46.036Z,15.42
2023-05-17T07:35:45.967Z,15.44
2023-05-17T07:36:45.926Z,15.57
2023-05-17T07:37:45.935Z,15.76
2023-05-17T07:38:45.994Z,15.80
2023-05-17T07:39:45.972Z,15.76
2023-05-17T07:40:45.987Z,15.57
2023-05-17T07:41:46.029Z,15.55
2023-05-17T07:42:46.040Z,15.52
2023-05-17T07:43:46.022Z,15.55
2023-05-17T07:44:45.994Z,15.59
2023-05-17T07:45:46.022Z,15.42
2023-05-17T07:46:46.937Z,15.57
2023-05-17T07:47:46.123Z,15.55
2023-05-17T07:48:46.319Z,15.75
2023-05-17T07:49:46.091Z,15.82
2023-05-17T07:50:46.043Z,15.97
2023-05-17T07:51:46.042Z,16.04
2023-05-17T07:52:46.058Z,16.10
2023-05-17T07:53:46.060Z,16.16
2023-05-17T07:54:46.077Z,16.29
2023-05-17T07:55:46.904Z,16.23
2023-05-17T07:56:46.076Z,16.12
2023-05-17T07:57:46.090Z,16.02
2023-05-17T07:58:46.117Z,15.95
2023-05-17T07:59:46.137Z,15.80
2023-05-17T08:00:46.115Z,15.67
2023-05-17T08:01:46.129Z,15.64
2023-05-17T08:02:46.186Z,15.61
2023-05-17T08:03:46.187Z,15.59
2023-05-17T08:04:46.225Z,15.61
2023-05-17T08:05:46.245Z,15.77
2023-05-17T08:06:46.166Z,15.94
2023-05-17T08:07:46.178Z,15.91
2023-05-17T08:08:46.182Z,16.00
2023-05-17T08:09:46.194Z,16.01
2023-05-17T08:10:46.914Z,15.98
2023-05-17T08:11:46.291Z,16.00
2023-05-17T08:12:46.219Z,15.98
2023-05-17T08:13:46.240Z,15.92
2023-05-17T08:14:46.222Z,15.98
2023-05-17T08:15:46.228Z,15.97
2023-05-17T08:16:46.282Z,15.91
2023-05-17T08:17:46.279Z,15.77
2023-05-17T08:18:46.368Z,15.82
2023-05-17T08:19:46.390Z,15.95
2023-05-17T08:20:46.499Z,15.98
2023-05-17T08:21:46.306Z,16.04
2023-05-17T08:22:46.283Z,16.26
2023-05-17T08:23:46.269Z,16.32
2023-05-17T08:24:46.292Z,16.50
2023-05-17T08:25:46.278Z,16.56
2023-05-17T08:26:46.296Z,16.61
2023-05-17T08:27:46.319Z,16.65
2023-05-17T08:28:46.288Z,16.69
2023-05-17T08:29:46.284Z,16.75
2023-05-17T08:30:46.291Z,16.68
2023-05-17T08:31:48.931Z,16.75
2023-05-17T08:32:46.488Z,16.84
2023-05-17T08:33:47.668Z,16.84
2023-05-17T08:34:46.325Z,16.97
2023-05-17T08:35:46.304Z,16.97
2023-05-17T08:36:46.416Z,17.14
2023-05-17T08:37:46.375Z,17.24
2023-05-17T08:38:46.314Z,17.24
2023-05-17T08:39:46.359Z,17.22
2023-05-17T08:40:46.305Z,17.19
2023-05-17T08:41:46.328Z,17.15
2023-05-17T08:42:46.310Z,17.14
2023-05-17T08:43:46.333Z,17.12
2023-05-17T08:44:46.321Z,17.20
2023-05-17T08:45:46.313Z,17.23
2023-05-17T08:46:46.327Z,17.26
2023-05-17T08:47:46.370Z,17.30
2023-05-17T08:48:46.379Z,17.20
2023-05-17T08:49:48.144Z,17.02
2023-05-17T08:50:46.318Z,17.02
2023-05-17T08:51:46.351Z,16.89
2023-05-17T08:52:46.416Z,16.79
2023-05-17T08:53:46.327Z,16.79
2023-05-17T08:54:46.364Z,16.87
2023-05-17T08:55:46.364Z,16.87
2023-05-17T08:56:46.330Z,16.76
2023-05-17T08:57:46.338Z,16.96
2023-05-17T08:58:56.236Z,17.04
2023-05-17T08:59:46.348Z,17.11
2023-05-17T09:00:46.330Z,17.12
2023-05-17T09:01:46.339Z,17.08
2023-05-17T09:02:46.417Z,17.05
2023-05-17T09:03:46.407Z,17.11
2023-05-17T09:04:46.415Z,17.04
2023-05-17T09:05:46.385Z,16.96
2023-05-17T09:06:46.349Z,16.84
2023-05-17T09:07:46.352Z,16.87
2023-05-17T09:08:46.355Z,16.86
2023-05-17T09:09:46.332Z,16.66
2023-05-17T09:10:46.338Z,16.58
2023-05-17T09:11:46.337Z,16.68
2023-05-17T09:12:46.333Z,16.61
2023-05-17T09:13:46.333Z,16.47
2023-05-17T09:14:46.336Z,16.31
2023-05-17T09:15:46.335Z,16.35
2023-05-17T09:16:46.327Z,16.35
2023-05-17T09:17:46.464Z,16.47
2023-05-17T09:18:46.486Z,16.47
2023-05-17T09:19:46.483Z,16.51
2023-05-17T09:20:46.340Z,16.53
2023-05-17T09:21:46.330Z,16.60
2023-05-17T09:22:46.355Z,16.61
2023-05-17T09:23:54.237Z,16.68
2023-05-17T09:24:46.534Z,16.69
2023-05-17T09:25:46.333Z,16.61
2023-05-17T09:26:46.479Z,16.64
2023-05-17T09:27:46.355Z,16.68
2023-05-17T09:28:46.347Z,16.71
2023-05-17T09:29:46.345Z,16.64
2023-05-17T09:30:46.337Z,16.57
2023-05-17T09:31:46.342Z,16.43
2023-05-17T09:32:46.538Z,16.24
2023-05-17T09:33:46.377Z,16.17
2023-05-17T09:34:46.329Z,16.23
2023-05-17T09:35:46.340Z,16.31
2023-05-17T09:36:46.379Z,16.36
2023-05-17T09:37:46.336Z,16.43
2023-05-17T09:38:46.334Z,16.46
2023-05-17T09:39:46.340Z,16.39
2023-05-17T09:40:46.367Z,16.20
2023-05-17T09:41:46.350Z,16.15
2023-05-17T09:42:46.380Z,16.10
2023-05-17T09:43:46.362Z,15.97
2023-05-17T09:44:46.325Z,16.05
2023-05-17T09:45:46.324Z,16.12
2023-05-17T09:46:46.369Z,16.09
2023-05-17T09:47:46.407Z,16.13
2023-05-17T09:48:46.408Z,16.23
2023-05-17T09:49:46.343Z,16.10
2023-05-17T09:50:46.338Z,15.95
2023-05-17T09:51:46.319Z,15.98
2023-05-17T09:52:46.318Z,15.76
2023-05-17T09:53:46.337Z,15.72
2023-05-17T09:54:46.329Z,15.72
2023-05-17T09:55:46.331Z,15.62
2023-05-17T09:56:46.358Z,15.70
2023-05-17T09:57:46.367Z,15.77
2023-05-17T09:58:46.361Z,15.75
2023-05-17T09:59:46.311Z,15.75
2023-05-17T10:00:47.249Z,15.88
2023-05-17T10:01:46.316Z,15.84
2023-05-17T10:02:46.383Z,15.82
2023-05-17T10:03:46.335Z,15.95
2023-05-17T10:04:46.352Z,16.01
2023-05-17T10:05:46.373Z,15.97
2023-05-17T10:06:49.555Z,15.95
2023-05-17T10:07:46.308Z,16.01
2023-05-17T10:08:46.343Z,15.98
2023-05-17T10:09:46.316Z,15.98
2023-05-17T10:10:46.369Z,15.82
2023-05-17T10:11:46.377Z,15.77
2023-05-17T10:13:59.994Z,15.70
2023-05-17T10:15:00.000Z,15.64
2023-05-17T10:17:04.433Z,15.51
2023-05-17T10:18:04.502Z,15.35
2023-05-17T10:19:04.437Z,15.35
2023-05-17T10:20:04.521Z,15.28
2023-05-17T10:21:04.360Z,15.25
2023-05-17T10:22:21.172Z,15.29
2023-05-17T10:23:04.354Z,15.33
2023-05-17T10:24:04.356Z,15.25
2023-05-17T10:25:04.361Z,15.25
2023-05-17T10:26:04.352Z,15.40
2023-05-17T10:27:04.341Z,15.43
2023-05-17T10:28:04.347Z,15.35
2023-05-17T10:29:04.378Z,15.36
2023-05-17T10:30:04.342Z,15.51
2023-05-17T10:31:04.364Z,15.46
2023-05-17T10:32:04.369Z,15.52
2023-05-17T10:33:04.479Z,15.49
2023-05-17T10:34:04.490Z,15.47
2023-05-17T10:35:11.123Z,15.44
2023-05-17T10:36:04.398Z,15.51
2023-05-17T10:37:04.348Z,15.46
2023-05-17T10:38:04.357Z,15.47
2023-05-17T10:39:04.335Z,15.46
2023-05-17T10:40:04.355Z,15.36
2023-05-17T10:41:04.340Z,15.46
2023-05-17T10:42:14.398Z,15.42
2023-05-17T10:43:04.341Z,15.36
2023-05-17T10:44:04.341Z,15.35
2023-05-17T10:45:04.372Z,15.31
2023-05-17T10:46:04.347Z,15.36
2023-05-17T10:47:04.324Z,15.36
2023-05-17T10:48:04.396Z,15.35
2023-05-17T10:49:04.383Z,15.44
2023-05-17T10:50:04.361Z,15.36
2023-05-17T10:51:04.326Z,15.43
2023-05-17T10:52:04.391Z,15.43
2023-05-17T10:53:04.319Z,15.31
2023-05-17T10:54:04.346Z,15.39
2023-05-17T10:55:04.308Z,15.31
2023-05-17T10:56:04.374Z,15.28
2023-05-17T10:57:05.364Z,15.28
2023-05-17T10:58:04.326Z,15.21
2023-05-17T10:59:04.322Z,15.15
2023-05-17T11:00:04.309Z,15.17
2023-05-17T11:01:04.365Z,15.17
2023-05-17T11:02:04.310Z,15.29
2023-05-17T11:03:04.344Z,15.27
2023-05-17T11:04:04.312Z,15.29
2023-05-17T11:05:04.363Z,15.27
2023-05-17T11:06:05.200Z,15.28
2023-05-17T11:07:06.623Z,15.29
2023-05-17T11:08:04.298Z,15.29
2023-05-17T11:09:04.288Z,15.25
2023-05-17T11:10:04.283Z,15.28
2023-05-17T11:11:04.325Z,15.31
2023-05-17T11:12:04.295Z,15.29
2023-05-17T11:13:04.291Z,15.29
2023-05-17T11:14:04.318Z,15.25
2023-05-17T11:15:05.761Z,15.33
2023-05-17T11:16:04.286Z,15.40
2023-05-17T11:17:04.276Z,15.31
2023-05-17T11:18:04.373Z,15.37
2023-05-17T11:19:04.379Z,15.40
2023-05-17T11:20:04.368Z,15.28
2023-05-17T11:21:04.316Z,15.25
2023-05-17T11:22:04.268Z,15.19
2023-05-17T11:23:04.269Z,15.11
2023-05-17T11:24:04.272Z,15.11
2023-05-17T11:25:04.270Z,15.11
2023-05-17T11:26:15.333Z,15.11
2023-05-17T11:27:04.262Z,15.11
2023-05-17T11:28:04.271Z,15.15
2023-05-17T11:29:04.266Z,15.10
2023-05-17T11:30:04.264Z,15.06
2023-05-17T11:31:04.264Z,15.24
2023-05-17T11:32:04.264Z,15.15
2023-05-17T11:33:05.707Z,15.14
2023-05-17T11:34:04.320Z,15.25
2023-05-17T11:35:04.335Z,15.24
2023-05-17T11:36:04.269Z,15.31
2023-05-17T11:37:04.253Z,15.33
2023-05-17T11:38:04.259Z,15.24
2023-05-17T11:39:07.982Z,15.29
2023-05-17T11:40:04.273Z,15.24
2023-05-17T11:41:06.253Z,15.27
2023-05-17T11:42:04.245Z,15.27
2023-05-17T11:43:04.250Z,15.28
2023-05-17T11:44:04.238Z,15.19
2023-05-17T11:45:04.241Z,15.15
2023-05-17T11:46:04.289Z,15.07
2023-05-17T11:47:04.298Z,15.00
2023-05-17T11:48:04.330Z,15.04
2023-05-17T11:49:04.238Z,15.06
2023-05-17T11:50:04.237Z,15.02
2023-05-17T11:51:04.232Z,15.06
2023-05-17T11:52:04.261Z,15.09
2023-05-17T11:53:04.271Z,15.11
2023-05-17T11:54:04.291Z,15.11
2023-05-17T11:55:04.227Z,15.25
2023-05-17T11:56:04.249Z,15.24
2023-05-17T11:57:04.306Z,15.24
2023-05-17T11:58:04.222Z,15.18
2023-05-17T11:59:04.213Z,15.18
2023-05-17T12:00:04.234Z,15.19
2023-05-17T12:01:04.221Z,15.28
2023-05-17T12:02:04.217Z,15.25
2023-05-17T12:03:04.283Z,15.36
2023-05-17T12:04:04.229Z,15.33
2023-05-17T12:05:04.358Z,15.33
2023-05-17T12:06:04.352Z,15.21
2023-05-17T12:07:04.200Z,15.35
2023-05-17T12:08:04.209Z,15.33
2023-05-17T12:09:04.229Z,15.29
2023-05-17T12:10:04.215Z,15.27
2023-05-17T12:11:04.204Z,15.33
2023-05-17T12:12:04.200Z,15.28
2023-05-17T12:13:04.205Z,15.36
2023-05-17T12:14:04.207Z,15.29
2023-05-17T12:15:04.192Z,15.25
2023-05-17T12:16:04.219Z,15.28
2023-05-17T12:17:04.186Z,15.29
2023-05-17T12:18:04.250Z,15.25
2023-05-17T12:19:04.326Z,15.29
2023-05-17T12:20:04.289Z,15.28
2023-05-17T12:21:04.207Z,15.27
2023-05-17T12:22:04.187Z,15.37
2023-05-17T12:23:04.184Z,15.29
2023-05-17T12:24:04.207Z,15.29
2023-05-17T12:25:04.184Z,15.29
2023-05-17T12:26:04.194Z,15.39
2023-05-17T12:27:04.210Z,15.29
2023-05-17T12:28:04.220Z,15.42
2023-05-17T12:29:04.178Z,15.35
2023-05-17T12:30:04.188Z,15.39
2023-05-17T12:31:04.171Z,15.35
2023-05-17T12:32:04.192Z,15.36
2023-05-17T12:33:04.227Z,15.47
2023-05-17T12:34:04.224Z,15.46
2023-05-17T12:35:04.168Z,15.49
2023-05-17T12:36:04.161Z,15.51
2023-05-17T12:37:04.276Z,15.52
2023-05-17T12:38:04.173Z,15.49
2023-05-17T12:39:04.161Z,15.51
2023-05-17T12:40:04.226Z,15.37
2023-05-17T12:41:04.160Z,15.49
2023-05-17T12:42:04.146Z,15.44
2023-05-17T12:43:04.160Z,15.52
2023-05-17T12:44:14.562Z,15.43
2023-05-17T12:45:04.139Z,15.54
2023-05-17T12:46:04.137Z,15.54
2023-05-17T12:47:04.190Z,15.49
2023-05-17T12:48:04.281Z,15.46
2023-05-17T12:49:04.156Z,15.51
2023-05-17T12:50:04.140Z,15.47
2023-05-17T12:51:04.144Z,15.49
2023-05-17T12:52:04.157Z,15.58
2023-05-17T12:53:04.169Z,15.51
2023-05-17T12:54:04.127Z,15.58
2023-05-17T12:55:04.121Z,15.55
2023-05-17T12:56:04.125Z,15.58
2023-05-17T12:57:04.129Z,15.58
2023-05-17T12:58:04.127Z,15.59
2023-05-17T12:59:04.116Z,15.62
2023-05-17T13:00:04.158Z,15.62
2023-05-17T13:01:04.126Z,15.59
2023-05-17T13:02:04.173Z,15.62
2023-05-17T13:03:04.146Z,15.65
2023-05-17T13:04:04.283Z,15.61
2023-05-17T13:05:04.177Z,15.59
2023-05-17T13:06:04.147Z,15.61
2023-05-17T13:07:04.199Z,15.61